KBNL/BNL METAR and TAF weather

Enter ICAO airport designator
Station Type Date Time Source
KBNL METAR 2022/06/26 07:35 UTC NOAA

KBNL 260735Z AUTO 00000KT 10SM CLR 21/19 A3011 RMK AO2


Station Type Date Time Source
KBNL Decoded METAR 2022/06/26 07:35 UTC NOAA

Station name not available
Jun 26, 2022 - 03:35 AM EDT / 2022.06.26 0735 UTC
Wind: Calm:0
Visibility: 10 mile(s):0
Sky conditions: clear
Temperature: 69 F (21 C)
Dew Point: 66 F (19 C)
Relative Humidity: 88%
Pressure (altimeter): 30.11 in. Hg (1019 hPa)
ob: KBNL 260735Z AUTO 00000KT 10SM CLR 21/19 A3011 RMK AO2
cycle: 7

Station Type Date Time Source
KBNL TAF UTC NOAA

Error!

Example: see airport list